Time;durP1;ratioP1;P1;durP2;ratioP2;P2;SDS_P1;SDS_P2;PMS_P1;PMS_P2;Temp;Humidity;BMP_temperature;BMP_pressure;BME280_temperature;BME280_humidity;BME280_pressure;Samples;Min_cycle;Max_cycle;Signal;HPM_P1;HPM_P2
2023/09/15 00:00:06;;;;;;;;;;;;;;;17.77;63.22;101105.73;110797;1261;22169;-79
2023/09/15 00:03:15;;;;;;;;;;;;;;;17.76;62.98;101104.56;110621;1261;21981;-78
2023/09/15 00:06:26;;;;;;;;;;;;;;;17.73;62.84;101104.73;109539;1266;21997;-79
2023/09/15 00:09:23;;;;;;;;;;;;;;;17.68;62.65;101103.39;110153;1266;21928;-79
2023/09/15 00:12:37;;;;;;;;;;;;;;;17.68;62.69;101104.31;110228;1266;23572;-79
2023/09/15 00:15:24;;;;;;;;;;;;;;;17.67;62.57;101102.22;110357;1263;21956;-78
2023/09/15 00:18:19;;;;;;;;;;;;;;;17.66;62.33;101105.45;109826;1266;22129;-78
2023/09/15 00:21:37;;;;;;;;;;;;;;;17.63;62.08;101106.86;109989;1267;21979;-79
2023/09/15 00:24:16;;;;;;;;;;;;;;;17.60;61.98;101104.20;110454;1262;21950;-79
2023/09/15 00:27:09;;;;;;;;;;;;;;;17.58;61.90;101109.10;110687;1262;21951;-80
2023/09/15 00:29:50;;;;;;;;;;;;;;;17.56;61.73;101110.40;109946;1269;21941;-79
2023/09/15 00:32:32;;;;;;;;;;;;;;;17.55;61.34;101106.27;109370;1274;23693;-79
2023/09/15 00:35:16;;;;;;;;;;;;;;;17.50;61.18;101107.20;109032;1271;21998;-79
2023/09/15 00:37:59;;;;;;;;;;;;;;;17.48;61.13;101106.78;109437;1271;23043;-79
2023/09/15 00:40:46;;;;;;;;;;;;;;;17.47;61.03;101104.23;109401;1271;23010;-80
2023/09/15 00:43:25;;;;;;;;;;;;;;;17.42;60.98;101100.98;110190;1265;23824;-79
2023/09/15 00:49:09;;;;;;;;;;;;;;;17.39;60.72;101107.45;110896;1259;23040;-79
2023/09/15 00:51:57;;;;;;;;;;;;;;;17.35;60.67;101105.05;111012;1259;21963;-79
2023/09/15 00:54:42;;;;;;;;;;;;;;;17.32;60.57;101107.98;110840;1259;21952;-78
2023/09/15 00:57:56;;;;;;;;;;;;;;;17.30;60.58;101104.27;110229;1265;23677;-78
2023/09/15 01:00:52;;;;;;;;;;;;;;;17.27;60.72;101106.54;110217;1265;23602;-79
2023/09/15 01:03:59;;;;;;;;;;;;;;;17.24;60.77;101108.44;110074;1265;22278;-78
2023/09/15 01:06:46;;;;;;;;;;;;;;;17.23;60.87;101108.54;109949;1265;21967;-80
2023/09/15 01:09:40;;;;;;;;;;;;;;;17.22;60.71;101108.25;110263;1260;21985;-78
2023/09/15 01:12:20;;;;;;;;;;;;;;;17.20;60.81;101112.89;110556;1260;22302;-79
2023/09/15 01:15:03;;;;;;;;;;;;;;;17.19;60.74;101116.46;110834;1254;21969;-79
2023/09/15 01:18:05;;;;;;;;;;;;;;;17.17;60.85;101124.30;111328;1254;22998;-78
2023/09/15 01:20:59;;;;;;;;;;;;;;;17.18;60.82;101127.25;111528;1254;21923;-78
2023/09/15 01:24:12;;;;;;;;;;;;;;;17.17;60.67;101126.91;111094;1251;22494;-78
2023/09/15 01:27:05;;;;;;;;;;;;;;;17.12;60.58;101127.70;110871;1257;21951;-79
2023/09/15 01:29:56;;;;;;;;;;;;;;;17.08;60.64;101132.70;110742;1259;23029;-78
2023/09/15 01:32:41;;;;;;;;;;;;;;;17.04;60.60;101130.94;110728;1259;21976;-81
2023/09/15 01:35:32;;;;;;;;;;;;;;;17.01;60.72;101133.42;110676;1259;21993;-78
2023/09/15 01:38:33;;;;;;;;;;;;;;;17.00;60.83;101134.52;110959;1259;21939;-79
2023/09/15 01:41:50;;;;;;;;;;;;;;;16.97;60.77;101138.67;109656;1271;21959;-78
2023/09/15 01:44:39;;;;;;;;;;;;;;;16.96;61.02;101139.11;109267;1267;23052;-78
2023/09/15 01:47:57;;;;;;;;;;;;;;;16.97;60.97;101136.61;110085;1267;23604;-77
2023/09/15 01:51:06;;;;;;;;;;;;;;;16.96;60.91;101143.14;109794;1267;21949;-79
2023/09/15 01:54:17;;;;;;;;;;;;;;;16.96;60.92;101142.30;109892;1267;21951;-79
2023/09/15 01:57:19;;;;;;;;;;;;;;;16.95;60.87;101143.18;110048;1267;21959;-78
2023/09/15 01:59:51;;;;;;;;;;;;;;;16.93;60.81;101142.25;110803;1253;22930;-78
2023/09/15 02:02:39;;;;;;;;;;;;;;;16.89;60.71;101142.27;111380;1254;21963;-80
2023/09/15 02:05:26;;;;;;;;;;;;;;;16.86;60.67;101142.96;111344;1254;21932;-78
2023/09/15 02:08:16;;;;;;;;;;;;;;;16.83;60.82;101141.02;111207;1254;24272;-79
2023/09/15 02:11:17;;;;;;;;;;;;;;;16.78;60.79;101139.64;110898;1260;23027;-80
2023/09/15 02:14:21;;;;;;;;;;;;;;;16.74;60.83;101141.63;110944;1260;23575;-80
2023/09/15 02:17:24;;;;;;;;;;;;;;;16.72;60.89;101143.50;110869;1260;21941;-80
2023/09/15 02:20:28;;;;;;;;;;;;;;;16.69;60.93;101144.17;110647;1260;21957;-77
2023/09/15 02:23:15;;;;;;;;;;;;;;;16.68;60.97;101145.28;109912;1267;23684;-79
2023/09/15 02:26:15;;;;;;;;;;;;;;;16.65;60.97;101144.19;109942;1267;23068;-81
2023/09/15 02:28:55;;;;;;;;;;;;;;;16.62;61.00;101142.75;110192;1261;23027;-79
2023/09/15 02:32:09;;;;;;;;;;;;;;;16.60;60.93;101148.49;110338;1265;21957;-79
2023/09/15 02:35:26;;;;;;;;;;;;;;;16.55;60.91;101149.41;110419;1265;21992;-79
2023/09/15 02:38:31;;;;;;;;;;;;;;;16.54;61.06;101147.19;110138;1265;22042;-78
2023/09/15 02:41:27;;;;;;;;;;;;;;;16.52;61.02;101146.95;110360;1259;21907;-78
2023/09/15 02:44:43;;;;;;;;;;;;;;;16.51;61.11;101147.17;110344;1257;22097;-78
2023/09/15 02:47:29;;;;;;;;;;;;;;;16.48;61.02;101151.70;110154;1265;23575;-79
2023/09/15 02:50:06;;;;;;;;;;;;;;;16.44;60.93;101151.76;109677;1268;23842;-78
2023/09/15 02:52:48;;;;;;;;;;;;;;;16.40;61.06;101156.51;109898;1269;23660;-78
2023/09/15 02:55:26;;;;;;;;;;;;;;;16.38;60.99;101155.71;109738;1268;21968;-78
2023/09/15 02:58:01;;;;;;;;;;;;;;;16.37;61.15;101156.44;109902;1268;21984;-78
2023/09/15 03:00:47;;;;;;;;;;;;;;;16.37;61.12;101159.45;109900;1263;21976;-78
2023/09/15 03:03:24;;;;;;;;;;;;;;;16.36;61.10;101161.95;109822;1269;22711;-79
2023/09/15 03:06:05;;;;;;;;;;;;;;;16.34;61.05;101160.84;109699;1268;23778;-78
2023/09/15 03:08:41;;;;;;;;;;;;;;;16.31;60.95;101159.38;109627;1267;23071;-79
2023/09/15 03:11:24;;;;;;;;;;;;;;;16.28;61.06;101158.69;110072;1261;23606;-78
2023/09/15 03:14:25;;;;;;;;;;;;;;;16.27;61.07;101160.98;110102;1267;21958;-80
2023/09/15 03:17:04;;;;;;;;;;;;;;;16.27;61.10;101160.13;110059;1267;23114;-78
2023/09/15 03:19:57;;;;;;;;;;;;;;;16.25;61.01;101156.69;110082;1266;24316;-76
2023/09/15 03:22:36;;;;;;;;;;;;;;;16.24;61.03;101159.06;109981;1265;22271;-79
2023/09/15 03:25:20;;;;;;;;;;;;;;;16.19;60.80;101155.56;110182;1264;24470;-78
2023/09/15 03:28:02;;;;;;;;;;;;;;;16.17;60.90;101156.57;110155;1264;23707;-78
2023/09/15 03:30:43;;;;;;;;;;;;;;;16.15;60.95;101156.14;110241;1265;21959;-80
2023/09/15 03:33:31;;;;;;;;;;;;;;;16.14;61.02;101159.70;109258;1272;21959;-79
2023/09/15 03:36:09;;;;;;;;;;;;;;;16.15;61.08;101159.12;108587;1277;21963;-80
2023/09/15 03:38:54;;;;;;;;;;;;;;;16.15;61.08;101158.23;108814;1278;21966;-79
2023/09/15 03:41:37;;;;;;;;;;;;;;;16.13;60.96;101160.61;108684;1282;22987;-80
2023/09/15 03:44:32;;;;;;;;;;;;;;;16.11;61.05;101160.19;108502;1281;22074;-79
2023/09/15 03:47:09;;;;;;;;;;;;;;;16.10;60.92;101167.44;109236;1274;21963;-79
2023/09/15 03:49:55;;;;;;;;;;;;;;;16.06;60.82;101173.27;108907;1276;21993;-77
2023/09/15 03:52:43;;;;;;;;;;;;;;;16.00;60.81;101173.33;109275;1271;23052;-78
2023/09/15 03:55:24;;;;;;;;;;;;;;;15.96;60.91;101175.64;109507;1271;21968;-80
2023/09/15 03:58:17;;;;;;;;;;;;;;;15.94;61.22;101179.42;109315;1271;22006;-78
2023/09/15 04:01:06;;;;;;;;;;;;;;;15.93;61.17;101180.52;109838;1261;23024;-78
2023/09/15 04:03:54;;;;;;;;;;;;;;;15.92;61.13;101181.42;110371;1261;22863;-77
2023/09/15 04:06:53;;;;;;;;;;;;;;;15.90;61.19;101184.36;110024;1268;23605;-82
2023/09/15 04:09:35;;;;;;;;;;;;;;;15.87;61.31;101186.43;110373;1265;21986;-81
2023/09/15 04:12:09;;;;;;;;;;;;;;;15.87;61.31;101189.95;110342;1265;22147;-79
2023/09/15 04:14:40;;;;;;;;;;;;;;;15.84;61.27;101191.13;110111;1265;21958;-78
2023/09/15 04:17:11;;;;;;;;;;;;;;;15.80;61.35;101194.13;110084;1265;21973;-79
2023/09/15 04:19:51;;;;;;;;;;;;;;;15.76;61.40;101198.66;110140;1265;23120;-79
2023/09/15 04:22:31;;;;;;;;;;;;;;;15.73;61.47;101205.83;110075;1265;22033;-79
2023/09/15 04:25:24;;;;;;;;;;;;;;;15.71;61.52;101203.83;110772;1256;22004;-79
2023/09/15 04:27:56;;;;;;;;;;;;;;;15.65;61.68;101205.33;110792;1251;21971;-79
2023/09/15 04:30:29;;;;;;;;;;;;;;;15.68;61.64;101211.85;110746;1258;23574;-78
2023/09/15 04:33:05;;;;;;;;;;;;;;;15.66;61.65;101214.05;110740;1258;23036;-79
2023/09/15 04:35:56;;;;;;;;;;;;;;;15.63;61.71;101218.52;110936;1258;21948;-78
2023/09/15 04:38:47;;;;;;;;;;;;;;;15.60;61.84;101223.59;110761;1258;21944;-79
2023/09/15 04:41:28;;;;;;;;;;;;;;;15.56;61.75;101225.88;110885;1258;21956;-78
2023/09/15 04:44:26;;;;;;;;;;;;;;;15.49;61.69;101223.04;111037;1258;21977;-78
2023/09/15 04:47:48;;;;;;;;;;;;;;;;;;;;;
2023/09/15 04:54:20;;;;;;;;;;;;;;;15.37;62.00;101222.70;110833;1261;22017;-78
2023/09/15 04:58:09;;;;;;;;;;;;;;;15.35;62.21;101221.87;110562;1262;21991;-80
2023/09/15 05:05:27;;;;;;;;;;;;;;;15.31;62.13;101223.66;109542;1272;23048;-78
2023/09/15 05:08:16;;;;;;;;;;;;;;;15.31;62.29;101224.35;109499;1272;22710;-79
2023/09/15 05:11:57;;;;;;;;;;;;;;;;;;;;;
2023/09/15 05:15:43;;;;;;;;;;;;;;;;;;;;;
2023/09/15 05:19:02;;;;;;;;;;;;;;;15.27;62.22;101231.02;108559;1284;23743;-78
2023/09/15 05:22:11;;;;;;;;;;;;;;;15.28;62.30;101233.77;108727;1284;21987;-78
2023/09/15 05:24:58;;;;;;;;;;;;;;;15.29;62.23;101237.05;108545;1284;21972;-79
2023/09/15 05:28:12;;;;;;;;;;;;;;;15.31;62.22;101243.65;108449;1284;22937;-81
2023/09/15 05:31:25;;;;;;;;;;;;;;;15.29;61.98;101245.48;108652;1278;23005;-79
2023/09/15 05:34:18;;;;;;;;;;;;;;;15.27;61.91;101245.92;108804;1278;23690;-79
2023/09/15 05:37:10;;;;;;;;;;;;;;;15.27;62.14;101247.51;110065;1267;25063;-79
2023/09/15 05:39:53;;;;;;;;;;;;;;;15.27;62.02;101251.39;110098;1267;23084;-80
2023/09/15 05:42:54;;;;;;;;;;;;;;;15.25;61.87;101251.96;109173;1272;21936;-79
2023/09/15 05:45:40;;;;;;;;;;;;;;;15.17;61.93;101241.77;109913;1266;22711;-79
2023/09/15 05:48:22;;;;;;;;;;;;;;;15.27;61.87;101254.53;110203;1266;22046;-80
2023/09/15 05:51:01;;;;;;;;;;;;;;;15.29;61.70;101256.36;110238;1266;21958;-79
2023/09/15 05:53:49;;;;;;;;;;;;;;;15.29;61.64;101257.05;110302;1266;22020;-79
2023/09/15 05:56:25;;;;;;;;;;;;;;;15.30;61.74;101257.02;110491;1259;23066;-80
2023/09/15 05:59:06;;;;;;;;;;;;;;;15.33;61.73;101257.91;110492;1260;22315;-77
2023/09/15 06:01:46;;;;;;;;;;;;;;;15.40;61.77;101259.89;110704;1260;23150;-77
2023/09/15 06:04:28;;;;;;;;;;;;;;;15.50;61.74;101259.46;110647;1260;22068;-78
2023/09/15 06:07:03;;;;;;;;;;;;;;;15.60;61.70;101263.21;110481;1260;21958;-77
2023/09/15 06:09:36;;;;;;;;;;;;;;;15.70;61.53;101263.68;110587;1260;24281;-77
2023/09/15 06:12:13;;;;;;;;;;;;;;;15.78;61.03;101258.08;110638;1260;22981;-77
2023/09/15 06:14:46;;;;;;;;;;;;;;;15.86;60.86;101261.77;110235;1265;22081;-77
2023/09/15 06:17:27;;;;;;;;;;;;;;;16.00;60.87;101263.39;110382;1264;21980;-76
2023/09/15 06:19:57;;;;;;;;;;;;;;;16.18;60.77;101260.96;110703;1260;23805;-76
2023/09/15 06:22:34;;;;;;;;;;;;;;;16.38;60.38;101264.09;110290;1265;22298;-78
2023/09/15 06:25:10;;;;;;;;;;;;;;;16.61;60.36;101262.81;109431;1272;23693;-78
2023/09/15 06:27:45;;;;;;;;;;;;;;;16.88;59.78;101262.38;109624;1272;23697;-78
2023/09/15 06:30:16;;;;;;;;;;;;;;;17.15;59.41;101268.09;109269;1272;22057;-77
2023/09/15 06:32:54;;;;;;;;;;;;;;;17.47;59.18;101267.85;109167;1272;24409;-77
2023/09/15 06:35:48;;;;;;;;;;;;;;;17.86;58.51;101265.13;109382;1272;22053;-77
2023/09/15 06:38:36;;;;;;;;;;;;;;;18.33;57.77;101270.65;109284;1272;22017;-77
2023/09/15 06:41:06;;;;;;;;;;;;;;;18.74;56.25;101271.85;109568;1269;23837;-78
2023/09/15 06:43:43;;;;;;;;;;;;;;;19.13;55.80;101266.85;110250;1260;21952;-77
2023/09/15 06:46:21;;;;;;;;;;;;;;;19.55;54.52;101274.17;110664;1260;23567;-77
2023/09/15 06:48:54;;;;;;;;;;;;;;;19.88;53.13;101274.69;110627;1260;22080;-77
2023/09/15 06:51:27;;;;;;;;;;;;;;;20.13;52.04;101276.25;111054;1256;23130;-78
2023/09/15 06:54:00;;;;;;;;;;;;;;;20.37;51.66;101274.05;110836;1255;22955;-78
2023/09/15 06:56:33;;;;;;;;;;;;;;;20.71;51.11;101273.81;110510;1260;23120;-76
2023/09/15 06:59:06;;;;;;;;;;;;;;;21.04;49.87;101275.52;110605;1260;22074;-78
2023/09/15 07:01:39;;;;;;;;;;;;;;;21.23;49.05;101276.88;110223;1257;21971;-80
2023/09/15 07:04:14;;;;;;;;;;;;;;;21.42;48.84;101273.46;110052;1266;22408;-77
2023/09/15 07:06:45;;;;;;;;;;;;;;;21.60;48.07;101271.54;109673;1270;21958;-77
2023/09/15 07:09:23;;;;;;;;;;;;;;;21.85;47.69;101271.42;109345;1271;21955;-78
2023/09/15 07:11:57;;;;;;;;;;;;;;;22.14;47.15;101273.42;109426;1271;23634;-76
2023/09/15 07:14:30;;;;;;;;;;;;;;;22.30;45.94;101272.48;109582;1266;21953;-77
2023/09/15 07:17:03;;;;;;;;;;;;;;;22.44;45.68;101269.36;109340;1271;22001;-76
2023/09/15 07:19:33;;;;;;;;;;;;;;;22.75;45.79;101271.66;109605;1266;24822;-76
2023/09/15 07:22:08;;;;;;;;;;;;;;;22.99;44.75;101272.52;109998;1266;23037;-77
2023/09/15 07:24:45;;;;;;;;;;;;;;;23.12;44.30;101274.02;109284;1268;23058;-77
2023/09/15 07:27:21;;;;;;;;;;;;;;;23.29;44.49;101273.46;109930;1268;21946;-78
2023/09/15 07:30:00;;;;;;;;;;;;;;;23.43;43.57;101275.40;109908;1268;21971;-79
2023/09/15 07:32:45;;;;;;;;;;;;;;;23.42;42.47;101279.59;109265;1273;21962;-77
2023/09/15 07:35:27;;;;;;;;;;;;;;;23.27;42.86;101279.98;109486;1270;23653;-77
2023/09/15 07:38:11;;;;;;;;;;;;;;;23.19;42.80;101287.38;109360;1273;21971;-77
2023/09/15 07:41:07;;;;;;;;;;;;;;;23.11;42.46;101285.67;109348;1273;21974;-79
2023/09/15 07:43:56;;;;;;;;;;;;;;;23.15;43.23;101287.84;109262;1272;22750;-77
2023/09/15 07:46:39;;;;;;;;;;;;;;;23.29;42.73;101288.89;109283;1272;22714;-78
2023/09/15 07:49:18;;;;;;;;;;;;;;;23.58;42.08;101287.55;109154;1271;23745;-76
2023/09/15 07:51:54;;;;;;;;;;;;;;;23.85;41.15;101292.97;108726;1277;22740;-81
2023/09/15 07:54:30;;;;;;;;;;;;;;;23.95;40.82;101294.63;108777;1278;22083;-80
2023/09/15 07:57:30;;;;;;;;;;;;;;;;;;;;;
2023/09/15 08:00:31;;;;;;;;;;;;;;;23.63;40.33;101294.66;108508;1284;23599;-79
2023/09/15 08:10:20;;;;;;;;;;;;;;;;;;;;;
2023/09/15 08:13:04;;;;;;;;;;;;;;;23.53;41.59;101302.50;108644;1279;22946;-77
2023/09/15 08:16:22;;;;;;;;;;;;;;;23.88;41.12;101301.60;108933;1276;21962;-78
2023/09/15 08:20:24;;;;;;;;;;;;;;;;;;;;;
2023/09/15 08:22:37;;;;;;;;;;;;;;;24.10;39.46;101307.33;108824;1276;22379;-78
2023/09/15 08:25:48;;;;;;;;;;;;;;;24.07;38.50;101302.08;109107;1273;23582;-77
2023/09/15 08:28:34;;;;;;;;;;;;;;;24.18;38.80;101302.96;110122;1261;22471;-78
2023/09/15 08:31:28;;;;;;;;;;;;;;;24.24;38.02;101303.18;110124;1266;22608;-77
2023/09/15 08:34:22;;;;;;;;;;;;;;;24.20;38.31;101299.61;110148;1266;21962;-77
2023/09/15 08:37:31;;;;;;;;;;;;;;;24.29;38.68;101303.14;110020;1266;23756;-75
2023/09/15 08:40:37;;;;;;;;;;;;;;;;;;;;;
2023/09/15 08:43:33;;;;;;;;;;;;;;;24.73;38.24;101295.30;109801;1264;23618;-74
2023/09/15 08:46:30;;;;;;;;;;;;;;;25.00;37.56;101290.79;110127;1264;21946;-77
2023/09/15 08:49:17;;;;;;;;;;;;;;;25.20;37.45;101289.63;109860;1262;21964;-77
2023/09/15 08:52:16;;;;;;;;;;;;;;;25.14;37.29;101287.83;110425;1262;23576;-77
2023/09/15 08:55:25;;;;;;;;;;;;;;;25.01;36.74;101290.48;110360;1262;21961;-77
2023/09/15 08:58:14;;;;;;;;;;;;;;;;;;;;;
2023/09/15 09:01:07;;;;;;;;;;;;;;;25.09;36.48;101289.45;110685;1257;21951;-79
2023/09/15 09:03:38;;;;;;;;;;;;;;;25.12;36.08;101294.58;110798;1259;22045;-79
2023/09/15 09:06:20;;;;;;;;;;;;;;;24.97;36.05;101295.11;110784;1259;23193;-77
2023/09/15 09:08:52;;;;;;;;;;;;;;;24.90;36.24;101295.70;111328;1255;22706;-77
2023/09/15 09:11:31;;;;;;;;;;;;;;;24.81;35.88;101294.99;110988;1255;23561;-78
2023/09/15 09:14:12;;;;;;;;;;;;;;;24.91;36.13;101298.62;111200;1254;23654;-78
2023/09/15 09:16:55;;;;;;;;;;;;;;;25.21;35.93;101299.02;111155;1255;22602;-76
2023/09/15 09:19:42;;;;;;;;;;;;;;;25.37;35.46;101292.68;111099;1255;21975;-76
2023/09/15 09:22:19;;;;;;;;;;;;;;;25.45;35.18;101298.05;111289;1255;22962;-77
2023/09/15 09:24:56;;;;;;;;;;;;;;;25.32;35.06;101288.95;111127;1255;22241;-79
2023/09/15 09:27:37;;;;;;;;;;;;;;;25.19;34.97;101292.39;111126;1254;21938;-78
2023/09/15 09:30:12;;;;;;;;;;;;;;;25.08;35.38;101291.55;111057;1255;23055;-78
2023/09/15 09:32:43;;;;;;;;;;;;;;;25.21;34.92;101290.06;111178;1255;22073;-79
2023/09/15 09:35:14;;;;;;;;;;;;;;;25.36;34.44;101290.27;110599;1261;21941;-78
2023/09/15 09:37:46;;;;;;;;;;;;;;;25.52;34.60;101293.30;110461;1261;23599;-77
2023/09/15 09:40:26;;;;;;;;;;;;;;;25.67;34.60;101286.63;110472;1261;21955;-77
2023/09/15 09:42:56;;;;;;;;;;;;;;;25.86;34.27;101285.94;110576;1261;22313;-78
2023/09/15 09:45:30;;;;;;;;;;;;;;;25.89;33.93;101289.23;110837;1260;23599;-78
2023/09/15 09:48:02;;;;;;;;;;;;;;;25.76;33.68;101289.64;110095;1267;22753;-79
2023/09/15 09:50:39;;;;;;;;;;;;;;;25.65;33.63;101282.02;109965;1267;22730;-78
2023/09/15 09:53:12;;;;;;;;;;;;;;;25.76;34.23;101284.13;110352;1260;21969;-79
2023/09/15 09:55:46;;;;;;;;;;;;;;;25.79;34.49;101284.75;110747;1260;22801;-77
2023/09/15 09:58:18;;;;;;;;;;;;;;;25.76;34.38;101286.62;110688;1258;23042;-77
2023/09/15 10:00:53;;;;;;;;;;;;;;;25.68;34.62;101283.94;110794;1260;21944;-77
2023/09/15 10:03:27;;;;;;;;;;;;;;;25.69;35.20;101285.74;110873;1260;21946;-78
2023/09/15 10:05:57;;;;;;;;;;;;;;;25.63;34.46;101290.25;110925;1255;21939;-78
2023/09/15 10:08:30;;;;;;;;;;;;;;;25.66;34.37;101290.66;111240;1255;22186;-80
2023/09/15 10:15:13;;;;;;;;;;;;;;;25.75;34.57;101285.44;111157;1255;21941;-77
2023/09/15 10:17:43;;;;;;;;;;;;;;;25.73;34.51;101282.20;110631;1261;23264;-78
2023/09/15 10:20:14;;;;;;;;;;;;;;;25.81;34.45;101283.16;110646;1261;21965;-78
2023/09/15 10:22:45;;;;;;;;;;;;;;;25.68;34.03;101275.67;110545;1261;23676;-77
2023/09/15 10:25:21;;;;;;;;;;;;;;;25.62;34.02;101276.23;110663;1261;21944;-78
2023/09/15 10:27:51;;;;;;;;;;;;;;;25.52;34.15;101272.96;110722;1261;21980;-77
2023/09/15 10:30:21;;;;;;;;;;;;;;;25.59;34.39;101270.62;110396;1257;22738;-77
2023/09/15 10:32:50;;;;;;;;;;;;;;;25.58;34.14;101272.53;109850;1267;23681;-77
2023/09/15 10:35:22;;;;;;;;;;;;;;;25.42;34.08;101276.70;110073;1259;21981;-77
2023/09/15 10:38:02;;;;;;;;;;;;;;;25.26;34.18;101272.39;110783;1259;21953;-77
2023/09/15 10:40:45;;;;;;;;;;;;;;;25.21;34.70;101270.69;110898;1258;22026;-77
2023/09/15 10:43:20;;;;;;;;;;;;;;;25.18;34.75;101267.92;110887;1259;23708;-77
2023/09/15 10:46:36;;;;;;;;;;;;;;;25.06;34.47;101264.60;110877;1258;21955;-77
2023/09/15 10:54:09;;;;;;;;;;;;;;;24.83;34.60;101259.08;110812;1261;23602;-76
2023/09/15 10:56:40;;;;;;;;;;;;;;;24.63;35.00;101255.98;111168;1258;21965;-77
2023/09/15 10:59:13;;;;;;;;;;;;;;;24.45;35.11;101252.08;110716;1260;21960;-77
2023/09/15 11:01:46;;;;;;;;;;;;;;;24.11;35.26;101248.23;110739;1258;23574;-78
2023/09/15 11:12:17;;;;;;;;;;;;;;;23.15;36.35;101234.58;110304;1266;21962;-79
2023/09/15 11:15:01;;;;;;;;;;;;;;;22.93;36.71;101228.23;109320;1271;23680;-79
2023/09/15 11:17:31;;;;;;;;;;;;;;;22.86;37.31;101224.74;109261;1274;22295;-78
2023/09/15 11:20:05;;;;;;;;;;;;;;;22.76;37.56;101230.98;108965;1267;21966;-76
2023/09/15 11:22:39;;;;;;;;;;;;;;;22.54;37.86;101234.38;109497;1269;23043;-77
2023/09/15 11:25:10;;;;;;;;;;;;;;;22.26;38.15;101233.95;109863;1269;23683;-76
2023/09/15 11:27:49;;;;;;;;;;;;;;;22.06;38.52;101224.21;109955;1268;22813;-78
2023/09/15 11:30:26;;;;;;;;;;;;;;;22.04;38.83;101230.92;109770;1269;23599;-78
2023/09/15 11:33:07;;;;;;;;;;;;;;;22.00;39.14;101228.54;109831;1265;22007;-78
2023/09/15 11:35:40;;;;;;;;;;;;;;;22.01;39.24;101225.08;110450;1260;22883;-78
2023/09/15 11:38:10;;;;;;;;;;;;;;;21.98;39.43;101228.52;111061;1255;23637;-78
2023/09/15 11:40:49;;;;;;;;;;;;;;;21.86;39.26;101226.14;110624;1260;21945;-78
2023/09/15 12:15:15;;;;;;;;;;;;;;;21.48;39.70;101214.54;111604;1254;23594;-78
2023/09/15 12:17:47;;;;;;;;;;;;;;;21.44;39.86;101212.11;111110;1255;21931;-78
2023/09/15 12:20:22;;;;;;;;;;;;;;;21.40;39.98;101212.69;110572;1262;23325;-79
2023/09/15 12:22:55;;;;;;;;;;;;;;;21.37;39.80;101209.00;110566;1260;23027;-80
2023/09/15 12:25:26;;;;;;;;;;;;;;;21.34;39.79;101201.45;110572;1262;21953;-79
2023/09/15 12:27:55;;;;;;;;;;;;;;;21.38;39.98;101201.16;110294;1257;22080;-78
2023/09/15 12:30:28;;;;;;;;;;;;;;;21.43;39.70;101200.48;110422;1262;22392;-79
2023/09/15 12:33:03;;;;;;;;;;;;;;;21.49;39.58;101197.27;110362;1262;21973;-78
2023/09/15 12:35:38;;;;;;;;;;;;;;;21.53;39.54;101191.69;109306;1271;22573;-78
2023/09/15 12:38:20;;;;;;;;;;;;;;;21.51;39.15;101188.41;109337;1270;24080;-77
2023/09/15 12:40:50;;;;;;;;;;;;;;;21.51;39.16;101184.06;109362;1271;21977;-78
2023/09/15 12:43:23;;;;;;;;;;;;;;;21.50;39.37;101182.66;109335;1271;22015;-77
2023/09/15 12:45:53;;;;;;;;;;;;;;;21.45;39.03;101186.52;109818;1265;22035;-78
2023/09/15 12:48:27;;;;;;;;;;;;;;;21.35;38.69;101179.61;109435;1270;23647;-78
2023/09/15 12:50:59;;;;;;;;;;;;;;;21.29;38.56;101175.77;109629;1269;22835;-77
2023/09/15 12:53:32;;;;;;;;;;;;;;;21.32;38.35;101169.56;109964;1263;21963;-78
2023/09/15 12:56:02;;;;;;;;;;;;;;;21.38;38.40;101168.10;110472;1263;23586;-77
2023/09/15 12:58:32;;;;;;;;;;;;;;;21.39;38.15;101166.58;110331;1263;21948;-79
2023/09/15 13:01:02;;;;;;;;;;;;;;;21.42;37.81;101158.95;110498;1263;21943;-77
2023/09/15 13:03:35;;;;;;;;;;;;;;;21.45;37.50;101158.03;110400;1263;21928;-79
2023/09/15 13:06:10;;;;;;;;;;;;;;;21.45;37.31;101156.10;110505;1258;22039;-76
2023/09/15 13:08:43;;;;;;;;;;;;;;;21.42;36.82;101157.67;110818;1258;22968;-79
2023/09/15 13:11:12;;;;;;;;;;;;;;;21.36;36.91;101162.17;110706;1258;21971;-78
2023/09/15 13:13:42;;;;;;;;;;;;;;;21.27;36.53;101160.85;110880;1254;24354;-77
2023/09/15 13:16:12;;;;;;;;;;;;;;;21.23;35.64;101159.72;111077;1255;22764;-78
2023/09/15 13:18:44;;;;;;;;;;;;;;;21.23;35.23;101163.30;111125;1255;21939;-79
2023/09/15 13:21:16;;;;;;;;;;;;;;;21.18;34.56;101158.14;111061;1255;21935;-79
2023/09/15 13:23:46;;;;;;;;;;;;;;;21.13;34.12;101158.48;111040;1255;21975;-78
2023/09/15 13:26:17;;;;;;;;;;;;;;;21.11;33.88;101157.91;111061;1254;21946;-79
2023/09/15 13:28:53;;;;;;;;;;;;;;;21.08;33.14;101153.52;111344;1254;21940;-78
2023/09/15 13:31:23;;;;;;;;;;;;;;;21.08;33.34;101151.76;111054;1254;21908;-78
2023/09/15 13:33:53;;;;;;;;;;;;;;;21.08;33.00;101145.23;110627;1260;21994;-77
2023/09/15 13:36:23;;;;;;;;;;;;;;;21.08;33.14;101141.66;110362;1264;21954;-78
2023/09/15 13:38:53;;;;;;;;;;;;;;;21.06;33.03;101140.02;110401;1264;21969;-78
2023/09/15 13:41:25;;;;;;;;;;;;;;;21.03;32.76;101137.09;110258;1260;21957;-79
2023/09/15 13:43:55;;;;;;;;;;;;;;;21.02;32.99;101134.63;109926;1268;21971;-79
2023/09/15 13:46:24;;;;;;;;;;;;;;;21.05;33.36;101128.04;109817;1268;23106;-78
2023/09/15 13:48:57;;;;;;;;;;;;;;;21.10;34.14;101126.12;109916;1268;22093;-79
2023/09/15 13:51:28;;;;;;;;;;;;;;;21.09;34.28;101122.33;109783;1268;22075;-78
2023/09/15 13:54:11;;;;;;;;;;;;;;;21.08;34.35;101119.88;110059;1264;21954;-77
2023/09/15 13:56:41;;;;;;;;;;;;;;;21.08;34.35;101113.87;109514;1271;22722;-82
2023/09/15 13:59:23;;;;;;;;;;;;;;;;;;;;;
2023/09/15 14:02:48;;;;;;;;;;;;;;;21.09;34.29;101110.64;110475;1261;21947;-84
2023/09/15 14:05:34;;;;;;;;;;;;;;;21.08;34.54;101110.69;109998;1260;23069;-79
2023/09/15 14:08:23;;;;;;;;;;;;;;;21.10;34.83;101111.30;109756;1268;21959;-78
2023/09/15 14:11:09;;;;;;;;;;;;;;;21.12;34.84;101110.91;110053;1268;23716;-81
2023/09/15 14:13:51;;;;;;;;;;;;;;;21.15;35.05;101111.10;110246;1268;21981;-80
2023/09/15 14:16:26;;;;;;;;;;;;;;;21.15;35.03;101107.20;110327;1268;22678;-80
2023/09/15 14:19:04;;;;;;;;;;;;;;;21.18;35.35;101105.41;109652;1273;22417;-80
2023/09/15 14:21:37;;;;;;;;;;;;;;;21.20;36.07;101109.31;109891;1268;22051;-81
2023/09/15 14:24:07;;;;;;;;;;;;;;;21.18;35.93;101107.53;110380;1268;22988;-81
2023/09/15 14:26:37;;;;;;;;;;;;;;;21.15;35.98;101104.34;110238;1268;21971;-81
2023/09/15 14:29:11;;;;;;;;;;;;;;;21.12;36.05;101102.58;110133;1267;22301;-80
2023/09/15 14:31:43;;;;;;;;;;;;;;;21.13;35.76;101102.77;110248;1268;22977;-80
2023/09/15 14:34:13;;;;;;;;;;;;;;;21.13;35.43;101103.45;109954;1268;22930;-82
2023/09/15 14:36:45;;;;;;;;;;;;;;;21.10;34.75;101104.76;110259;1262;22113;-81
2023/09/15 14:39:20;;;;;;;;;;;;;;;21.08;34.56;101100.25;110080;1262;23680;-81
2023/09/15 14:41:56;;;;;;;;;;;;;;;21.07;34.42;101095.40;109592;1265;22514;-81
2023/09/15 14:44:28;;;;;;;;;;;;;;;21.10;34.25;101103.50;109428;1270;23154;-83
2023/09/15 14:46:58;;;;;;;;;;;;;;;21.09;33.69;101100.21;109671;1266;23058;-82
2023/09/15 14:49:28;;;;;;;;;;;;;;;21.08;33.81;101098.48;109661;1270;22299;-81
2023/09/15 14:51:59;;;;;;;;;;;;;;;21.06;34.12;101094.93;109765;1271;21981;-81
2023/09/15 14:54:34;;;;;;;;;;;;;;;21.02;34.09;101093.39;109988;1261;21984;-81
2023/09/15 14:57:11;;;;;;;;;;;;;;;21.00;33.42;101091.21;109990;1266;23680;-81
2023/09/15 14:59:55;;;;;;;;;;;;;;;21.01;33.57;101089.44;110622;1266;21954;-81
2023/09/15 15:02:30;;;;;;;;;;;;;;;21.01;33.10;101086.43;110340;1265;22015;-80
2023/09/15 15:05:03;;;;;;;;;;;;;;;21.03;32.87;101085.77;110463;1265;21955;-79
2023/09/15 15:07:42;;;;;;;;;;;;;;;21.03;32.86;101080.20;110838;1259;21962;-79